This is the latest recevied weather packets stored in our database for station/object NQ9F. If no packets are shown the sender has not sent any weather packets the latest 10 day(s).
| Time | Temp. | Humidity | Pressure | Rain* | Wind** | Luminosity | Snow |
|---|---|---|---|---|---|---|---|
| 1777496632 | 16.11° C | 79% | 1014.3 hPa | 0 mm | - | 161 W/m² | - |
| 1777496328 | 16.11° C | 80% | 1014.1 hPa | 0 mm | - | 140 W/m² | - |
| 1777496024 | 16.11° C | 80% | 1014 hPa | 0 mm | - | 145 W/m² | - |
| 1777495721 | 16.11° C | 80% | 1014.2 hPa | 0 mm | - | 192 W/m² | - |
| 1777495417 | 16.11° C | 79% | 1014.2 hPa | 0 mm | - | 165 W/m² | - |
| 1777495113 | 16.67° C | 79% | 1014 hPa | 0 mm | - | 264 W/m² | - |
| 1777494811 | 16.67° C | 78% | 1014.5 hPa | 0 mm | - | 162 W/m² | - |
| 1777494508 | 16.67° C | 79% | 1014.1 hPa | 0 mm | - | 317 W/m² | - |
| 1777494205 | 16.67° C | 78% | 1014 hPa | 0 mm | - | 354 W/m² | - |
| 1777493902 | 16.67° C | 79% | 1014.3 hPa | 0 mm | - | 310 W/m² | - |
| 1777493600 | 16.67° C | 78% | 1014.6 hPa | 0 mm | - | 265 W/m² | - |
| 1777493297 | 16.67° C | 77% | 1014.6 hPa | 0 mm | - | 330 W/m² | - |
| 1777492994 | 16.67° C | 77% | 1014.9 hPa | 0 mm | - | 248 W/m² | - |
| 1777492690 | 16.67° C | 77% | 1014.5 hPa | 0 mm | - | 290 W/m² | - |
| 1777492390 | 16.67° C | 77% | 1014.4 hPa | 0 mm | - | 427 W/m² | - |
| 1777492089 | 16.67° C | 77% | 1014.7 hPa | 0 mm | - | 362 W/m² | - |
| 1777491785 | 16.67° C | 77% | 1014.9 hPa | 0 mm | - | 348 W/m² | - |
| 1777491481 | 16.11° C | 76% | 1015.2 hPa | 0 mm | - | 359 W/m² | - |
| 1777491179 | 16.67° C | 78% | 1015.4 hPa | 0 mm | - | 328 W/m² | - |
| 1777490874 | 16.11° C | 78% | 1015.7 hPa | 0 mm | - | 269 W/m² | - |
| 1777490571 | 16.11° C | 79% | 1015.4 hPa | 0 mm | - | 382 W/m² | - |
| 1777490267 | 16.11° C | 78% | 1015.3 hPa | 0 mm | - | 424 W/m² | - |
| 1777489964 | 16.11° C | 78% | 1015.5 hPa | 0 mm | - | 362 W/m² | - |
| 1777489663 | 16.67° C | 77% | 1015.4 hPa | 0 mm | - | 548 W/m² | - |
| 1777489358 | 16.67° C | 80% | 1015.5 hPa | 0 mm | - | 507 W/m² | - |
* Rain latest hour (hover to see other rain measurements)
** Current wind speed in m/s (hover to see current wind gust speed)